createdAt,value
2018-12-31T00:03:20.951Z,17.77
2018-12-31T00:08:40.542Z,15.27
2018-12-31T00:14:00.094Z,20.23
2018-12-31T00:19:19.565Z,18.33
2018-12-31T00:24:38.750Z,21.33
2018-12-31T00:29:58.615Z,20.97
2018-12-31T00:35:17.871Z,19.60
2018-12-31T00:40:37.293Z,17.93
2018-12-31T00:45:56.524Z,21.73
2018-12-31T00:51:17.012Z,21.10
2018-12-31T00:56:37.711Z,25.77
2018-12-31T01:01:57.239Z,20.30
2018-12-31T01:07:16.637Z,18.20
2018-12-31T01:12:36.571Z,18.53
2018-12-31T01:17:55.771Z,19.83
2018-12-31T01:23:17.835Z,19.60
2018-12-31T01:28:36.990Z,21.30
2018-12-31T01:33:57.071Z,22.40
2018-12-31T01:39:17.651Z,27.63
2018-12-31T01:44:37.048Z,23.77
2018-12-31T01:49:57.435Z,21.03
2018-12-31T01:55:16.569Z,24.97
2018-12-31T02:00:36.798Z,31.10
2018-12-31T02:05:57.451Z,25.70
2018-12-31T02:11:16.968Z,31.90
2018-12-31T02:16:37.411Z,21.73
2018-12-31T02:21:57.329Z,20.30
2018-12-31T02:27:16.829Z,18.77
2018-12-31T02:32:36.395Z,22.43
2018-12-31T02:37:55.782Z,22.50
2018-12-31T02:43:15.684Z,25.93
2018-12-31T02:48:34.866Z,27.00
2018-12-31T02:53:54.298Z,31.20
2018-12-31T02:59:13.514Z,18.80
2018-12-31T03:04:32.463Z,21.00
2018-12-31T03:09:52.331Z,22.20
2018-12-31T03:15:12.002Z,25.40
2018-12-31T03:20:31.446Z,34.10
2018-12-31T03:25:50.847Z,30.43
2018-12-31T03:31:09.919Z,15.30
2018-12-31T03:36:29.009Z,17.77
2018-12-31T03:41:48.510Z,18.93
2018-12-31T03:47:07.980Z,20.03
2018-12-31T03:52:42.257Z,13.90
2018-12-31T03:58:02.528Z,18.73
2018-12-31T04:03:22.221Z,23.97
2018-12-31T04:08:42.209Z,20.57
2018-12-31T04:14:01.410Z,18.30
2018-12-31T04:19:23.564Z,29.63
2018-12-31T04:24:42.492Z,27.97
2018-12-31T04:30:02.236Z,24.30
2018-12-31T04:35:22.711Z,26.30
2018-12-31T04:57:45.791Z,41.47
2018-12-31T05:03:05.016Z,42.67
2018-12-31T05:08:24.596Z,21.93
2018-12-31T05:13:44.555Z,60.50
2018-12-31T05:19:03.758Z,60.97
2018-12-31T05:24:23.377Z,138.53
2018-12-31T05:29:42.889Z,67.50
